• Join FlightAware (Why Join?)
  • Login
  • US Flag 
11:39AM EDT


 

Airport Tracker/Info


-or-


 

Live Flight TrackerFlight Track Log ✈ SWA1017 ✈ 17-Apr-2013 ✈ KAUS - KDAL

Flight Track Log - Related Links

Times and Time Zones

All times are in EDT time to prevent confusion due to time zone crossing. See the SWA1017 flight status page for this flight to view local times or setup timezone preferences in your user account.

Time Position Orientation Groundspeed Altitude Reporting Facility
EDT Latitude Longitude Course Direction KTS MPH feet Rate Location/Type
04:57PM 30.1403 -97.5942 48° Northeast 232 267 5,700  Level Houston Center
04:58PM 30.2167 -97.5308 36° Northeast 293 337 8,500 2,940 Climbing Houston Center
04:59PM 30.2967 -97.4767 30° Northeast 326 375 11,900 2,640 Climbing Houston Center
05:00PM 30.3886 -97.4150 30° Northeast 368 423 14,000 1,080 Climbing Houston Center
05:01PM 30.4867 -97.3592 26° Northeast 388 447 14,200 1,560 Climbing Houston Center
05:02PM 30.7043 -97.1291 41° Northeast  Level FlightAware Approximate
05:03PM 30.7665 -97.0574 48° Northeast  Level FlightAware Approximate
05:03PM 30.5758 -97.2881 34° Northeast 392 451 17,300  Level Houston Center
05:04PM 30.6539 -97.1944 46° Northeast 402 463 20,800 2,220 Climbing Houston Center
05:05PM 30.7481 -97.0833 45° Northeast 412 474 22,000 540 Climbing Houston Center
05:06PM 30.8314 -96.9853 45° Northeast 425 489 22,000  Level Houston Center
05:07PM 30.9128 -96.8867 46° Northeast 424 488 22,000  Level Houston Center
05:08PM 30.9950 -96.7892 45° Northeast 422 486 22,000  Level Houston Center
05:09PM 31.0775 -96.6903 46° Northeast 426 490 22,000  Level Houston Center
05:10PM 31.1611 -96.5894 46° Northeast 430 495 22,000  Level Houston Center
05:11PM 31.2589 -96.4744 45° Northeast 426 490 22,000  Level Houston Center
05:12PM 31.3422 -96.3725 46° Northeast 428 493 22,000  Level Houston Center
05:13PM 31.4278 -96.3081 33° Northeast 420 483 22,000  Level Fort Worth Center
05:14PM 31.5425 -96.3117 358° North 394 453 22,000 -300 Level Fort Worth Center
05:15PM 31.6617 -96.3200 357° North 405 466 21,400 -900 Descending Fort Worth Center
05:16PM 31.7975 -96.3306 356° North 441 507 20,200 -2,100 Descending Fort Worth Center
05:17PM 31.9228 -96.3364 358° North 447 514 17,300 -2,160 Descending Fort Worth Center
05:18PM 32.0419 -96.3447 357° North 440 506 16,000 -2,160 Descending Fort Worth Center
05:19PM 32.1589 -96.3533 356° North 418 481 13,000 -3,000 Descending Fort Worth Center
05:20PM 32.2717 -96.3617 356° North 418 481 10,000 -1,680 Descending Fort Worth Center
05:21PM 32.3614 -96.3656 358° North 379 436 9,700 -540 Descending Fort Worth Center
05:22PM 32.4597 -96.3842 351° North 338 389 9,000 -900 Descending Fort Worth Center
05:23PM 32.5289 -96.4278 332° Northwest 310 357 8,000 -1,020 Descending Fort Worth Center
05:24PM 32.6169 -96.4786 334° Northwest 310 357 7,000 -960 Descending Fort Worth Center
05:25PM 32.6861 -96.5247 331° Northwest 315 362 6,100 -1,020 Descending Fort Worth Center
05:26PM 32.7556 -96.5958 319° Northwest 308 354 5,000 -1,020 Descending Fort Worth Center
05:27PM 32.8144 -96.6522 321° Northwest 303 349 4,100 -1,140 Descending Fort Worth Center
05:27PM 32.8333 -96.6833 306° West 300 345 3,500 -1,380 Descending Dallas / Fort Worth TRACON
05:28PM 32.8833 -96.7500 312° West 280 322 2,400 -600 Descending Dallas / Fort Worth TRACON
05:29PM 32.9167 -96.8167 301° West 187 215 2,400 -480 Level Dallas / Fort Worth TRACON
05:30PM 32.9000 -96.8667 248° West 149 171 1,400 -780 Descending Dallas / Fort Worth TRACON
05:31PM 32.8667 -96.8833 203° Southwest 134 154 900 -600 Descending Dallas / Fort Worth TRACON